Time;durP1;ratioP1;P1;durP2;ratioP2;P2;SDS_P1;SDS_P2;PMS_P1;PMS_P2;Temp;Humidity;BMP_temperature;BMP_pressure;BME280_temperature;BME280_humidity;BME280_pressure;Samples;Min_cycle;Max_cycle;Signal;HPM_P1;HPM_P2
2023/10/10 00:01:05;;;;;;;33.80;18.90;;;;;;;2.49;71.33;100618.13;130852;1257;106947;-76
2023/10/10 00:04:12;;;;;;;33.40;18.10;;;;;;;2.46;71.28;100616.00;130923;1258;107708;-76
2023/10/10 00:07:18;;;;;;;32.10;18.20;;;;;;;2.42;70.92;100614.83;130875;1258;107440;-77
2023/10/10 00:10:27;;;;;;;34.10;18.70;;;;;;;2.34;71.07;100619.85;130902;1260;107665;-77
2023/10/10 00:13:34;;;;;;;32.20;17.60;;;;;;;2.27;71.23;100620.96;130813;1258;108456;-77
2023/10/10 00:16:42;;;;;;;33.60;19.00;;;;;;;2.24;71.27;100616.44;130866;1254;109358;-77
2023/10/10 00:19:54;;;;;;;33.90;18.30;;;;;;;2.22;71.12;100615.83;130905;1265;107800;-78
2023/10/10 00:22:59;;;;;;;31.50;18.40;;;;;;;2.21;71.12;100614.52;130937;1253;106916;-76
2023/10/10 00:26:07;;;;;;;33.60;17.50;;;;;;;2.20;71.14;100611.43;130863;1254;107409;-77
2023/10/10 00:29:13;;;;;;;31.50;18.20;;;;;;;2.17;71.16;100612.11;130912;1262;106741;-77
2023/10/10 00:32:22;;;;;;;32.70;16.80;;;;;;;2.11;71.20;100616.30;130918;1252;107005;-76
2023/10/10 00:35:28;;;;;;;31.30;17.20;;;;;;;2.07;71.33;100616.19;130892;1254;106368;-76
2023/10/10 00:38:34;;;;;;;33.70;17.40;;;;;;;2.03;71.37;100619.23;130892;1256;107422;-76
2023/10/10 00:41:44;;;;;;;29.10;16.10;;;;;;;2.01;71.35;100612.55;130936;1254;107840;-76
2023/10/10 00:44:53;;;;;;;30.00;16.70;;;;;;;1.97;71.44;100618.35;130784;1257;107203;-76
2023/10/10 00:48:00;;;;;;;29.00;16.10;;;;;;;1.94;71.46;100615.02;130807;1257;107695;-77
2023/10/10 00:51:07;;;;;;;29.90;16.50;;;;;;;1.89;71.44;100612.33;130870;1266;105380;-76
2023/10/10 00:54:25;;;;;;;29.30;16.60;;;;;;;1.86;71.48;100611.83;130962;1257;108668;-76
2023/10/10 00:57:35;;;;;;;26.20;15.60;;;;;;;1.82;71.54;100611.33;130710;1254;106518;-76
2023/10/10 01:00:46;;;;;;;30.80;17.10;;;;;;;1.78;71.52;100605.95;130929;1254;106328;-76
2023/10/10 01:03:51;;;;;;;28.00;15.10;;;;;;;1.77;71.69;100603.53;130756;1260;106573;-78
2023/10/10 01:06:57;;;;;;;25.30;14.50;;;;;;;1.80;71.56;100598.65;130656;1259;107048;-77
2023/10/10 01:10:11;;;;;;;25.10;13.30;;;;;;;1.88;71.74;100595.16;130874;1257;108674;-77
2023/10/10 01:13:17;;;;;;;25.20;15.10;;;;;;;1.96;71.49;100595.25;130913;1258;108498;-77
2023/10/10 01:16:25;;;;;;;28.20;14.80;;;;;;;1.99;71.25;100594.37;130953;1254;108536;-78
2023/10/10 01:19:30;;;;;;;28.30;15.00;;;;;;;2.01;71.32;100592.36;130949;1257;106777;-77
2023/10/10 01:22:40;;;;;;;24.00;14.20;;;;;;;2.04;71.12;100591.11;130947;1257;107708;-76
2023/10/10 01:25:47;;;;;;;27.60;14.60;;;;;;;2.05;71.26;100593.35;130939;1257;106058;-77
2023/10/10 01:28:52;;;;;;;31.70;17.00;;;;;;;2.04;71.18;100594.62;130944;1254;106508;-76
2023/10/10 01:31:58;;;;;;;26.20;15.40;;;;;;;2.03;71.23;100596.41;130779;1254;107741;-77
2023/10/10 01:35:15;;;;;;;26.80;15.70;;;;;;;2.04;71.21;100599.70;130785;1253;107665;-77
2023/10/10 01:38:55;;;;;;;25.40;14.30;;;;;;;1.97;71.22;100599.60;130898;1267;107672;-77
2023/10/10 01:42:01;;;;;;;26.20;14.50;;;;;;;1.90;71.45;100600.17;130956;1257;107713;-75
2023/10/10 01:45:10;;;;;;;25.40;15.10;;;;;;;1.85;71.29;100604.30;130975;1255;106911;-77
2023/10/10 01:48:17;;;;;;;27.60;14.80;;;;;;;1.83;71.34;100614.46;131081;1258;106980;-77
2023/10/10 01:51:24;;;;;;;24.60;14.20;;;;;;;1.78;71.30;100617.86;130980;1257;106746;-77
2023/10/10 01:54:35;;;;;;;24.80;13.60;;;;;;;1.75;71.25;100618.05;130888;1258;106659;-77
2023/10/10 01:57:40;;;;;;;25.10;14.30;;;;;;;1.70;71.20;100621.83;131030;1254;107786;-76
2023/10/10 02:00:47;;;;;;;27.10;14.60;;;;;;;1.61;71.16;100621.30;130773;1256;107308;-76
2023/10/10 02:03:53;;;;;;;23.90;14.30;;;;;;;1.53;71.19;100625.77;130975;1259;108666;-76
2023/10/10 02:07:04;;;;;;;23.60;13.40;;;;;;;1.49;71.43;100628.08;130963;1257;108667;-77
2023/10/10 02:10:13;;;;;;;23.70;13.00;;;;;;;1.47;71.30;100626.27;130694;1254;106504;-76
2023/10/10 02:13:19;;;;;;;24.90;13.50;;;;;;;1.43;71.35;100623.35;130937;1257;107063;-76
2023/10/10 02:16:35;;;;;;;24.10;13.30;;;;;;;1.38;71.37;100623.45;130861;1257;107817;-77
2023/10/10 02:19:41;;;;;;;24.80;13.80;;;;;;;1.36;71.43;100624.63;130968;1253;106192;-76
2023/10/10 02:22:51;;;;;;;20.50;12.80;;;;;;;1.35;71.47;100630.11;130895;1257;105414;-76
2023/10/10 02:26:02;;;;;;;22.20;12.90;;;;;;;1.33;71.40;100634.06;131024;1257;107706;-78
2023/10/10 02:32:33;;;;;;;23.40;13.00;;;;;;;1.30;71.47;100638.45;130895;1266;107696;-77
2023/10/10 02:35:54;;;;;;;21.00;12.20;;;;;;;1.30;71.44;100645.41;130788;1264;106364;-77
2023/10/10 02:39:18;;;;;;;16.40;9.60;;;;;;;1.34;71.48;100645.58;131349;1256;107208;-77
2023/10/10 02:42:25;;;;;;;20.80;11.40;;;;;;;1.41;71.43;100648.17;131631;1253;108573;-78
2023/10/10 02:45:35;;;;;;;22.20;12.00;;;;;;;1.47;71.28;100635.42;134905;1252;106974;-77
2023/10/10 02:48:42;;;;;;;20.00;12.00;;;;;;;1.53;71.39;100637.70;135064;1252;107038;-78
2023/10/10 02:51:48;;;;;;;19.50;12.40;;;;;;;1.61;71.33;100642.14;135027;1252;108399;-78
2023/10/10 02:54:55;;;;;;;20.80;11.90;;;;;;;1.67;71.32;100637.29;134963;1253;106837;-78
2023/10/10 02:58:00;;;;;;;22.20;12.40;;;;;;;1.65;71.25;100637.36;134688;1253;107623;-77
2023/10/10 03:01:18;;;;;;;18.60;12.10;;;;;;;1.61;71.10;100637.43;130804;1254;107812;-76
2023/10/10 03:04:52;;;;;;;21.10;12.30;;;;;;;1.59;71.20;100645.81;130940;1256;106660;-77
2023/10/10 03:07:53;;;;;;;21.30;12.00;;;;;;;1.55;71.29;100643.88;130901;1257;109118;-79
2023/10/10 03:11:01;;;;;;;21.80;11.60;;;;;;;1.53;71.11;100640.70;130893;1257;108731;-77
2023/10/10 03:14:08;;;;;;;23.50;12.10;;;;;;;1.49;71.17;100637.37;130806;1254;107406;-77
2023/10/10 03:17:31;;;;;;;19.50;12.10;;;;;;;1.47;71.00;100639.10;130655;1259;106910;-77
2023/10/10 03:20:50;;;;;;;23.00;12.50;;;;;;;1.41;71.20;100639.23;130878;1253;107715;-77
2023/10/10 03:24:06;;;;;;;21.80;12.10;;;;;;;1.36;71.12;100636.55;130763;1258;107291;-77
2023/10/10 03:27:48;;;;;;;22.50;13.30;;;;;;;1.28;71.06;100640.83;130650;1259;107807;-77
2023/10/10 03:31:06;;;;;;;22.90;13.60;;;;;;;1.25;71.12;100645.21;130865;1257;107729;-78
2023/10/10 03:34:29;;;;;;;21.50;12.70;;;;;;;1.23;71.06;100641.99;130666;1257;106384;-78
2023/10/10 03:37:42;;;;;;;23.00;13.50;;;;;;;1.18;71.21;100639.42;130709;1257;108907;-77
2023/10/10 03:41:24;;;;;;;22.70;13.20;;;;;;;1.14;71.14;100644.89;130750;1254;107609;-77
2023/10/10 05:25:52;;;;;;;20.50;12.70;;;;;;;1.10;71.87;100704.88;130807;1254;108338;-78
2023/10/10 05:28:59;;;;;;;23.80;13.00;;;;;;;1.17;72.06;100709.05;130791;1253;106711;-78
2023/10/10 05:32:08;;;;;;;23.90;13.90;;;;;;;1.24;72.30;100716.05;130874;1253;107467;-76
2023/10/10 05:35:16;;;;;;;24.40;13.50;;;;;;;1.31;72.39;100721.09;130836;1257;106828;-78
2023/10/10 05:38:22;;;;;;;21.70;13.70;;;;;;;1.42;72.67;100722.47;130861;1258;106232;-77
2023/10/10 05:41:28;;;;;;;16.90;10.70;;;;;;;1.58;73.03;100726.65;130955;1252;106992;-78
2023/10/10 05:44:38;;;;;;;23.30;13.70;;;;;;;1.76;73.19;100732.03;130803;1258;106482;-79
2023/10/10 05:47:44;;;;;;;21.00;13.00;;;;;;;1.92;73.54;100736.34;130892;1258;107174;-78
2023/10/10 05:50:50;;;;;;;20.80;13.40;;;;;;;2.08;73.84;100739.02;130833;1252;107251;-78
2023/10/10 05:53:55;;;;;;;19.20;13.00;;;;;;;2.22;73.93;100738.55;130845;1257;107277;-78
2023/10/10 05:57:01;;;;;;;20.60;13.20;;;;;;;2.36;73.98;100740.04;130755;1255;108612;-76
2023/10/10 06:00:10;;;;;;;19.20;12.30;;;;;;;2.48;74.23;100740.77;130801;1257;107779;-77
2023/10/10 06:03:18;;;;;;;21.40;13.50;;;;;;;2.57;74.41;100740.73;130868;1253;109322;-76
2023/10/10 06:06:24;;;;;;;19.20;12.30;;;;;;;2.65;74.50;100745.19;130848;1257;107626;-77
2023/10/10 06:09:34;;;;;;;17.70;12.10;;;;;;;2.75;74.45;100744.41;130879;1257;107753;-78
2023/10/10 06:12:39;;;;;;;18.40;11.80;;;;;;;2.86;74.70;100749.77;130858;1252;107746;-78
2023/10/10 06:15:45;;;;;;;16.80;11.80;;;;;;;2.94;74.79;100747.34;130812;1258;107774;-78
2023/10/10 06:18:51;;;;;;;17.40;11.90;;;;;;;3.02;74.83;100751.95;130806;1259;107553;-77
2023/10/10 06:22:02;;;;;;;15.40;10.70;;;;;;;3.12;75.05;100748.91;130834;1258;106527;-78
2023/10/10 06:25:10;;;;;;;13.40;9.20;;;;;;;3.25;75.08;100755.15;130746;1258;108787;-78
2023/10/10 06:28:25;;;;;;;15.00;9.70;;;;;;;3.37;75.22;100755.81;130972;1253;108656;-77
2023/10/10 06:31:33;;;;;;;14.30;10.10;;;;;;;3.53;75.26;100754.83;130887;1258;107690;-79
2023/10/10 06:34:39;;;;;;;14.50;9.80;;;;;;;3.67;75.40;100756.95;130908;1257;107882;-78
2023/10/10 06:37:45;;;;;;;13.30;9.90;;;;;;;3.78;75.29;100759.07;130837;1257;107966;-77
2023/10/10 06:40:54;;;;;;;14.40;10.50;;;;;;;3.88;75.49;100768.95;130843;1257;108462;-78
2023/10/10 06:43:59;;;;;;;14.70;10.40;;;;;;;3.98;75.54;100767.29;130876;1256;106723;-77
2023/10/10 06:47:11;;;;;;;14.50;10.70;;;;;;;4.07;75.60;100769.38;130845;1257;107675;-77
2023/10/10 06:50:21;;;;;;;13.80;10.40;;;;;;;4.17;75.88;100765.52;130889;1253;106281;-76
2023/10/10 06:53:35;;;;;;;15.60;11.30;;;;;;;4.26;75.95;100761.08;130755;1253;107636;-77
2023/10/10 06:56:54;;;;;;;16.00;10.50;;;;;;;4.36;76.05;100757.98;130868;1253;107144;-76
2023/10/10 06:59:59;;;;;;;15.10;9.40;;;;;;;4.48;76.35;100761.73;130881;1253;107656;-76
2023/10/10 07:03:05;;;;;;;13.00;8.70;;;;;;;4.63;76.41;100761.14;130851;1257;107455;-78
2023/10/10 07:06:11;;;;;;;15.40;9.50;;;;;;;4.78;76.49;100757.14;130923;1257;108726;-79
2023/10/10 07:09:27;;;;;;;20.50;12.10;;;;;;;4.97;76.79;100755.87;130823;1258;108806;-75
2023/10/10 07:12:34;;;;;;;19.90;13.70;;;;;;;5.12;76.58;100755.69;130882;1257;108632;-75
2023/10/10 07:15:41;;;;;;;26.90;17.70;;;;;;;5.26;76.59;100760.05;130842;1253;106905;-75
2023/10/10 07:18:56;;;;;;;35.20;21.30;;;;;;;5.40;76.72;100765.77;130998;1252;106748;-76
2023/10/10 07:22:03;;;;;;;45.70;30.10;;;;;;;5.52;76.79;100764.59;130761;1252;107687;-77
2023/10/10 07:25:18;;;;;;;46.80;29.70;;;;;;;5.60;76.88;100763.67;130967;1257;107791;-75
2023/10/10 07:28:26;;;;;;;41.10;26.20;;;;;;;5.69;76.92;100767.30;130913;1252;106667;-75
2023/10/10 07:31:34;;;;;;;37.30;23.80;;;;;;;5.80;76.93;100768.96;130889;1253;108629;-76
2023/10/10 07:34:42;;;;;;;33.30;20.60;;;;;;;5.88;77.36;100768.74;130924;1258;106683;-75
2023/10/10 07:37:47;;;;;;;28.90;18.20;;;;;;;5.98;77.23;100764.02;130845;1253;107649;-75
2023/10/10 07:40:53;;;;;;;30.20;18.30;;;;;;;6.11;77.56;100761.11;130956;1257;108688;-76
2023/10/10 07:43:59;;;;;;;19.00;12.50;;;;;;;6.28;77.37;100757.41;130860;1258;107697;-75
2023/10/10 07:47:19;;;;;;;18.80;12.10;;;;;;;6.46;77.37;100753.63;130923;1253;106359;-75
2023/10/10 07:50:26;;;;;;;16.90;11.10;;;;;;;6.61;77.53;100750.52;130877;1256;107895;-75
2023/10/10 07:53:41;;;;;;;15.60;11.00;;;;;;;6.73;77.56;100748.77;130822;1257;106073;-75
2023/10/10 07:56:47;;;;;;;14.90;11.00;;;;;;;6.84;77.51;100741.40;130805;1254;107794;-74
2023/10/10 07:59:56;;;;;;;15.30;11.10;;;;;;;6.91;77.47;100739.05;130843;1254;106507;-75
2023/10/10 08:03:01;;;;;;;14.70;10.80;;;;;;;7.01;77.70;100736.56;130921;1257;107582;-75
2023/10/10 08:06:08;;;;;;;16.70;12.10;;;;;;;7.11;77.66;100741.08;130857;1252;107300;-75
2023/10/10 08:09:20;;;;;;;15.60;9.70;;;;;;;7.21;77.98;100742.05;130808;1254;107195;-74
2023/10/10 08:12:29;;;;;;;13.20;9.00;;;;;;;7.29;78.32;100735.60;130934;1256;108623;-75
2023/10/10 08:15:43;;;;;;;14.90;10.30;;;;;;;7.42;78.44;100737.44;130847;1253;107026;-75
2023/10/10 08:18:55;;;;;;;14.00;10.00;;;;;;;7.61;78.34;100736.09;130870;1256;106889;-75
2023/10/10 08:22:12;;;;;;;13.00;9.70;;;;;;;7.78;78.28;100730.67;130965;1257;107742;-74
2023/10/10 08:25:17;;;;;;;13.70;10.70;;;;;;;7.92;78.26;100729.25;130827;1253;108658;-74
2023/10/10 08:28:23;;;;;;;15.00;10.80;;;;;;;8.04;78.24;100721.29;130871;1253;106791;-74
2023/10/10 08:31:29;;;;;;;14.90;10.60;;;;;;;8.11;78.27;100713.68;130822;1253;108443;-75
2023/10/10 08:34:38;;;;;;;13.80;10.40;;;;;;;8.08;78.30;100717.79;130905;1256;106755;-74
2023/10/10 08:37:44;;;;;;;15.60;10.90;;;;;;;8.04;78.48;100719.33;130884;1258;106965;-74
2023/10/10 08:40:57;;;;;;;13.50;9.60;;;;;;;8.03;78.48;100716.42;130761;1253;107142;-73
2023/10/10 08:44:04;;;;;;;13.50;8.50;;;;;;;8.05;79.08;100716.42;130810;1258;105838;-74
2023/10/10 08:47:16;;;;;;;16.20;10.80;;;;;;;8.09;79.16;100715.78;130825;1253;107736;-74
2023/10/10 08:50:24;;;;;;;;;;;;;;;8.12;79.13;100719.27;130894;1256;106517;-74
2023/10/10 08:53:30;;;;;;;14.90;11.20;;;;;;;8.16;79.10;100722.95;130796;1258;108590;-74
2023/10/10 08:56:37;;;;;;;16.50;12.20;;;;;;;8.21;79.29;100723.84;130844;1257;106897;-74
2023/10/10 08:59:45;;;;;;;17.10;12.60;;;;;;;8.24;79.29;100731.16;130859;1258;106357;-74
2023/10/10 09:02:51;;;;;;;15.30;12.30;;;;;;;8.27;79.31;100726.52;130904;1257;107701;-72
2023/10/10 09:05:56;;;;;;;17.90;13.20;;;;;;;8.29;79.20;100727.95;130843;1253;106533;-73
2023/10/10 09:09:32;;;;;;;17.30;11.80;;;;;;;8.32;79.51;100732.54;130797;1258;106627;-75
2023/10/10 09:12:29;;;;;;;17.20;11.40;;;;;;;8.36;79.61;100732.17;130831;1256;107700;-75
2023/10/10 09:15:35;;;;;;;21.10;14.00;;;;;;;8.44;79.73;100732.43;130836;1258;106671;-74
2023/10/10 09:18:42;;;;;;;19.70;14.30;;;;;;;8.54;79.77;100729.98;130871;1257;106905;-76
2023/10/10 09:21:55;;;;;;;19.90;15.10;;;;;;;8.66;79.57;100731.31;130858;1252;108016;-75
2023/10/10 09:25:17;;;;;;;18.00;13.70;;;;;;;8.76;79.41;100728.51;130852;1258;107429;-73
2023/10/10 09:28:30;;;;;;;16.20;12.50;;;;;;;8.81;79.27;100729.64;130782;1258;107370;-75
2023/10/10 09:31:37;;;;;;;17.10;12.40;;;;;;;8.88;79.15;100734.64;130836;1258;107640;-73
2023/10/10 09:34:43;;;;;;;13.70;10.30;;;;;;;8.92;78.94;100738.84;130942;1253;106813;-73
2023/10/10 09:37:49;;;;;;;13.70;10.60;;;;;;;8.97;79.06;100738.41;130819;1253;107542;-73
2023/10/10 09:41:10;;;;;;;14.70;9.40;;;;;;;9.05;79.05;100737.38;130851;1254;107537;-75
2023/10/10 09:44:30;;;;;;;12.20;8.00;;;;;;;9.15;78.69;100736.41;130790;1258;108195;-73
2023/10/10 09:47:43;;;;;;;11.50;8.20;;;;;;;9.28;78.46;100735.22;130820;1257;108479;-73
2023/10/10 09:51:08;;;;;;;8.40;6.70;;;;;;;9.46;78.04;100738.86;130898;1253;108414;-73
2023/10/10 09:54:17;;;;;;;9.70;6.90;;;;;;;9.62;77.79;100732.80;130818;1256;108714;-73
2023/10/10 09:57:26;;;;;;;11.40;7.90;;;;;;;9.75;77.17;100733.64;130754;1257;219204;-73
2023/10/10 10:00:45;;;;;;;11.30;7.70;;;;;;;9.84;76.86;100734.48;130824;1258;107682;-73
2023/10/10 10:04:03;;;;;;;10.30;7.10;;;;;;;9.94;77.14;100731.57;130909;1258;108057;-73
2023/10/10 10:07:23;;;;;;;9.50;7.40;;;;;;;10.03;76.95;100729.14;130807;1257;107935;-73
2023/10/10 10:10:48;;;;;;;9.30;6.60;;;;;;;10.10;76.71;100725.67;130875;1253;107672;-73
2023/10/10 10:14:11;;;;;;;10.10;7.00;;;;;;;10.13;76.42;100720.95;130764;1257;106523;-77
2023/10/10 10:17:26;;;;;;;10.00;6.70;;;;;;;10.13;75.87;100712.66;130856;1257;107262;-73
2023/10/10 10:20:43;;;;;;;9.60;7.20;;;;;;;10.13;75.96;100714.83;130828;1252;107682;-73
2023/10/10 10:23:56;;;;;;;10.90;7.60;;;;;;;10.11;75.69;100709.77;130846;1253;106637;-73
2023/10/10 10:27:23;;;;;;;9.50;7.30;;;;;;;10.10;75.76;100713.10;130829;1253;107532;-73
2023/10/10 10:30:46;;;;;;;11.10;7.50;;;;;;;10.10;75.54;100709.92;130797;1257;106576;-73
2023/10/10 10:34:08;;;;;;;11.70;8.30;;;;;;;10.09;75.57;100702.36;130864;1258;107228;-75
2023/10/10 10:37:23;;;;;;;9.20;6.40;;;;;;;10.08;75.68;100700.61;130803;1268;106622;-73
2023/10/10 10:40:46;;;;;;;6.80;5.20;;;;;;;10.10;75.11;100699.43;130851;1253;106800;-73
2023/10/10 10:43:51;;;;;;;;;;;;;;;10.15;74.97;100696.25;130846;1257;107072;-75
2023/10/10 10:46:58;;;;;;;7.40;5.60;;;;;;;10.25;74.93;100694.17;130812;1259;107700;-74
2023/10/10 10:50:06;;;;;;;9.10;6.00;;;;;;;10.33;75.10;100693.96;130914;1253;107515;-74
2023/10/10 10:53:35;;;;;;;7.00;4.90;;;;;;;10.39;74.52;100690.91;130824;1258;107620;-74
2023/10/10 10:56:41;;;;;;;5.80;4.80;;;;;;;10.43;73.88;100685.64;130777;1257;107784;-73
2023/10/10 10:59:55;;;;;;;5.80;4.70;;;;;;;10.47;74.02;100687.04;130824;1256;107068;-74
2023/10/10 11:03:09;;;;;;;6.50;5.20;;;;;;;10.49;73.85;100685.73;130807;1253;107212;-73
2023/10/10 11:06:15;;;;;;;6.30;4.80;;;;;;;10.51;74.04;100686.44;130835;1253;107149;-74
2023/10/10 11:09:32;;;;;;;6.10;4.90;;;;;;;10.52;73.73;100681.91;130818;1257;107918;-74
2023/10/10 11:12:38;;;;;;;7.50;5.20;;;;;;;10.53;73.91;100676.48;130816;1257;107288;-74
2023/10/10 11:15:44;;;;;;;6.60;5.40;;;;;;;10.54;73.91;100678.34;130854;1253;106551;-74
2023/10/10 11:18:57;;;;;;;7.50;5.70;;;;;;;10.54;73.47;100680.14;130829;1257;107786;-73
2023/10/10 11:22:05;;;;;;;7.00;5.80;;;;;;;10.54;73.73;100677.45;130830;1257;108314;-74
2023/10/10 11:25:20;;;;;;;6.80;5.60;;;;;;;10.56;73.72;100676.91;130807;1253;107734;-74
2023/10/10 11:28:38;;;;;;;6.30;5.40;;;;;;;10.56;73.17;100670.87;130891;1256;107649;-74
2023/10/10 11:31:48;;;;;;;7.20;5.60;;;;;;;10.59;73.56;100668.79;130881;1256;107975;-74
2023/10/10 11:34:56;;;;;;;6.10;5.00;;;;;;;10.63;73.62;100666.33;130857;1253;107873;-74
2023/10/10 11:38:06;;;;;;;6.40;4.70;;;;;;;10.66;73.45;100660.38;130871;1258;106706;-73
2023/10/10 11:41:11;;;;;;;4.80;3.70;;;;;;;10.68;73.00;100657.51;130804;1258;107254;-74
2023/10/10 11:44:21;;;;;;;5.00;3.40;;;;;;;10.67;72.75;100654.56;130844;1253;108199;-73
2023/10/10 11:47:28;;;;;;;4.60;3.10;;;;;;;10.65;72.54;100653.66;130861;1259;107752;-75
2023/10/10 11:50:46;;;;;;;4.50;3.40;;;;;;;10.61;72.40;100656.20;130858;1257;107716;-73
2023/10/10 11:53:54;;;;;;;7.20;3.30;;;;;;;10.58;72.47;100656.21;130860;1257;107470;-73
2023/10/10 11:57:00;;;;;;;5.70;3.70;;;;;;;10.57;72.53;100652.27;130692;1253;106701;-74
2023/10/10 12:00:11;;;;;;;6.20;4.00;;;;;;;10.58;72.20;100653.42;130884;1257;107612;-73
2023/10/10 12:03:32;;;;;;;6.10;3.30;;;;;;;10.57;71.73;100648.87;130876;1252;106926;-73
2023/10/10 12:06:41;;;;;;;5.80;4.00;;;;;;;10.56;71.40;100650.75;130928;1258;106737;-73
2023/10/10 12:09:51;;;;;;;7.10;3.90;;;;;;;10.54;71.27;100642.63;130844;1254;107853;-73
2023/10/10 12:12:57;;;;;;;7.50;4.30;;;;;;;10.51;71.14;100639.32;130873;1258;107172;-73
2023/10/10 12:16:07;;;;;;;6.40;4.10;;;;;;;10.49;70.78;100638.64;130856;1258;106433;-74
2023/10/10 12:19:13;;;;;;;6.60;4.30;;;;;;;10.49;71.42;100635.19;130643;1253;107425;-73
2023/10/10 12:22:18;;;;;;;8.20;4.50;;;;;;;10.53;71.60;100630.38;130844;1258;107687;-73
2023/10/10 12:25:24;;;;;;;5.30;3.90;;;;;;;10.62;71.37;100629.17;130848;1257;106657;-73
2023/10/10 12:28:30;;;;;;;5.90;3.90;;;;;;;10.74;71.35;100621.46;130855;1257;107113;-74
2023/10/10 12:31:36;;;;;;;8.20;4.10;;;;;;;10.87;70.85;100618.85;130857;1258;106624;-73
2023/10/10 12:34:42;;;;;;;7.70;3.90;;;;;;;11.01;70.93;100619.10;130934;1257;106794;-74
2023/10/10 12:37:47;;;;;;;5.30;3.80;;;;;;;11.15;70.52;100616.20;130816;1259;107139;-73
2023/10/10 12:40:56;;;;;;;6.80;4.00;;;;;;;11.26;70.53;100611.95;130862;1258;106779;-74
2023/10/10 12:44:06;;;;;;;9.50;4.30;;;;;;;11.38;70.31;100608.63;130851;1258;109116;-76
2023/10/10 12:47:17;;;;;;;6.40;4.70;;;;;;;11.50;70.18;100610.67;130936;1258;106342;-73
2023/10/10 12:50:26;;;;;;;8.60;4.80;;;;;;;11.58;69.58;100605.72;130922;1253;107656;-73
2023/10/10 12:53:39;;;;;;;8.40;4.70;;;;;;;11.71;69.90;100603.77;130855;1258;107078;-75
2023/10/10 12:56:54;;;;;;;7.20;4.40;;;;;;;11.80;69.66;100606.29;130860;1256;106442;-73
2023/10/10 13:00:23;;;;;;;7.50;5.00;;;;;;;11.81;69.09;100606.77;130846;1257;108158;-74
2023/10/10 13:03:28;;;;;;;6.70;4.20;;;;;;;11.78;69.17;100606.85;130910;1258;107722;-73
2023/10/10 13:06:35;;;;;;;6.80;4.70;;;;;;;11.74;69.06;100597.61;130985;1253;107338;-75
2023/10/10 13:09:43;;;;;;;7.20;4.10;;;;;;;11.70;68.86;100594.77;130862;1257;107681;-73
2023/10/10 13:12:51;;;;;;;6.10;4.40;;;;;;;11.68;68.90;100589.84;130887;1253;107202;-74
2023/10/10 13:16:07;;;;;;;6.20;4.50;;;;;;;11.67;68.97;100593.30;130835;1257;108394;-75
2023/10/10 13:19:14;;;;;;;6.70;5.20;;;;;;;11.64;68.87;100588.93;130623;1253;106830;-74
2023/10/10 13:22:21;;;;;;;6.50;4.80;;;;;;;11.63;68.96;100586.98;130814;1253;106606;-74
2023/10/10 13:25:27;;;;;;;7.60;4.90;;;;;;;11.62;68.83;100590.44;130750;1259;106267;-73
2023/10/10 13:28:32;;;;;;;5.90;4.20;;;;;;;11.60;68.57;100593.27;130819;1257;106307;-73
2023/10/10 13:31:38;;;;;;;6.00;4.30;;;;;;;11.58;68.41;100597.41;130794;1258;106755;-75
2023/10/10 13:34:43;;;;;;;6.40;4.60;;;;;;;11.58;68.32;100592.98;130851;1256;106550;-73
2023/10/10 13:37:49;;;;;;;5.50;3.90;;;;;;;11.53;68.61;100587.36;130795;1253;105716;-73
2023/10/10 13:40:55;;;;;;;5.90;4.10;;;;;;;11.44;68.22;100579.94;130807;1258;107057;-75
2023/10/10 13:44:00;;;;;;;5.60;3.80;;;;;;;11.35;68.42;100575.63;130834;1252;106394;-73
2023/10/10 13:47:07;;;;;;;5.20;3.60;;;;;;;11.27;68.58;100571.34;130850;1253;107391;-73
2023/10/10 13:50:31;;;;;;;4.50;3.40;;;;;;;11.23;68.81;100570.39;130822;1256;107603;-73
2023/10/10 13:53:39;;;;;;;5.40;3.40;;;;;;;11.19;68.73;100569.61;130838;1258;107650;-74
2023/10/10 13:56:44;;;;;;;4.40;3.10;;;;;;;11.18;68.61;100570.48;130781;1257;108579;-74
2023/10/10 13:59:51;;;;;;;5.00;3.40;;;;;;;11.17;68.37;100567.95;132408;1253;106631;-76
2023/10/10 14:03:03;;;;;;;4.70;3.20;;;;;;;11.13;67.84;100567.70;132869;1257;107181;-76
2023/10/10 14:06:10;;;;;;;6.50;3.30;;;;;;;11.10;68.14;100566.29;131368;1258;108669;-76
2023/10/10 14:09:22;;;;;;;15.30;8.00;;;;;;;11.05;68.18;100564.30;131366;1256;107864;-75
2023/10/10 14:12:31;;;;;;;7.00;3.80;;;;;;;11.02;68.13;100566.54;131194;1253;106352;-74
2023/10/10 14:15:37;;;;;;;5.70;3.20;;;;;;;10.96;67.85;100560.66;131138;1253;107228;-73
2023/10/10 14:18:43;;;;;;;5.00;2.70;;;;;;;10.92;67.96;100553.06;130872;1258;107721;-73
2023/10/10 14:21:49;;;;;;;6.50;4.10;;;;;;;10.88;67.94;100549.36;130827;1257;106479;-73
2023/10/10 14:24:54;;;;;;;5.00;3.30;;;;;;;10.84;68.10;100555.27;130905;1257;106228;-73
2023/10/10 14:28:00;;;;;;;5.90;4.00;;;;;;;10.77;68.19;100553.02;130949;1256;106612;-73
2023/10/10 14:31:06;;;;;;;8.70;6.00;;;;;;;10.71;67.93;100556.48;130902;1256;106854;-73
2023/10/10 14:34:19;;;;;;;29.60;19.90;;;;;;;10.65;68.25;100559.23;130884;1253;106552;-73
2023/10/10 14:37:25;;;;;;;13.30;10.00;;;;;;;10.59;67.98;100561.91;131015;1253;107712;-75
2023/10/10 14:40:32;;;;;;;9.00;5.80;;;;;;;10.55;68.00;100559.63;132171;1253;107774;-74
2023/10/10 14:43:38;;;;;;;12.20;7.50;;;;;;;10.50;68.56;100560.75;131174;1258;106410;-73
2023/10/10 14:46:44;;;;;;;10.80;6.70;;;;;;;10.45;68.45;100555.89;132813;1253;110580;-79
2023/10/10 14:49:56;;;;;;;8.10;5.70;;;;;;;10.42;68.38;100556.18;131047;1257;106573;-76
2023/10/10 14:53:01;;;;;;;9.70;6.00;;;;;;;10.40;68.52;100561.91;131163;1257;106734;-77
2023/10/10 14:56:07;;;;;;;28.20;19.50;;;;;;;10.38;68.36;100567.95;131023;1257;106686;-76
2023/10/10 14:59:17;;;;;;;20.60;13.90;;;;;;;10.33;68.42;100570.06;131264;1253;108377;-77
2023/10/10 15:02:29;;;;;;;17.70;10.70;;;;;;;10.26;68.41;100574.40;132201;1256;106311;-81
2023/10/10 15:05:46;;;;;;;16.30;10.80;;;;;;;10.19;68.66;100581.42;130662;1257;108601;-77
2023/10/10 15:08:56;;;;;;;17.60;10.60;;;;;;;10.11;68.33;100576.87;130946;1253;107999;-76
2023/10/10 15:12:08;;;;;;;;;;;;;;;10.02;68.30;100574.60;130703;1258;109830;-76
2023/10/10 15:15:18;;;;;;;13.60;8.40;;;;;;;9.93;68.25;100569.23;130921;1253;108649;-76
2023/10/10 15:18:26;;;;;;;17.80;10.10;;;;;;;9.84;68.46;100564.71;130929;1257;107685;-76
2023/10/10 15:21:35;;;;;;;22.10;13.70;;;;;;;9.75;68.75;100569.30;130908;1258;107318;-76
2023/10/10 15:24:41;;;;;;;19.80;11.80;;;;;;;9.67;69.06;100575.55;131203;1252;106877;-79
2023/10/10 15:27:46;;;;;;;22.10;12.30;;;;;;;9.58;68.80;100578.84;130829;1257;106471;-79
2023/10/10 15:30:52;;;;;;;28.20;14.80;;;;;;;9.52;68.87;100576.05;130900;1258;108310;-79
2023/10/10 15:33:58;;;;;;;50.20;25.10;;;;;;;9.47;69.12;100578.38;130908;1256;107746;-77
2023/10/10 15:37:14;;;;;;;41.80;18.20;;;;;;;9.46;69.06;100587.52;130944;1253;107760;-76
2023/10/10 15:40:21;;;;;;;21.20;11.20;;;;;;;9.46;69.10;100588.99;131031;1254;106884;-76
2023/10/10 15:43:27;;;;;;;17.70;9.80;;;;;;;9.44;69.07;100590.34;131005;1256;106827;-75
2023/10/10 15:46:35;;;;;;;14.80;9.00;;;;;;;9.42;69.53;100584.87;131216;1257;108550;-75
2023/10/10 15:49:41;;;;;;;11.60;7.00;;;;;;;9.38;69.73;100582.06;130961;1259;108631;-76
2023/10/10 15:52:48;;;;;;;10.90;6.00;;;;;;;9.32;69.92;100595.36;130811;1259;106650;-76
2023/10/10 15:56:10;;;;;;;13.20;7.00;;;;;;;9.24;69.86;100597.64;130992;1258;109054;-77
2023/10/10 15:59:16;;;;;;;10.10;5.80;;;;;;;9.17;69.98;100597.77;130956;1253;107711;-76
2023/10/10 16:02:21;;;;;;;15.90;10.10;;;;;;;9.13;70.22;100590.86;130940;1257;107854;-75